Dati Storici

Data ora Umidita' aria (%) Temperatura aria (°C) Rad globale (W/m²) Gonioanemometro (°) Tacoanemometro (m/s) Pioggia (mm)
15-10-2012 06:40 90.8 % 12.729 3.923 3.097 1.484 0
15-10-2012 06:30 90.8 % 12.755 4 39.897 1.685 0
15-10-2012 06:20 91 % 12.812 3.821 26.783 1.136 0
15-10-2012 06:10 91.1 % 12.759 3.885 34.604 1.055 0
15-10-2012 06:00 91.1 % 12.756 3.872 20.523 1.532 0
15-10-2012 05:50 91 % 12.75 3.667 13.122 2.673 0
15-10-2012 05:40 90.8 % 12.747 3.615 41.374 2.004 0
15-10-2012 05:30 90.9 % 12.855 3.718 16.125 1.997 0
15-10-2012 05:20 91.1 % 12.811 3.808 194.837 0.966 0
15-10-2012 05:10 91.1 % 12.74 3.57 337.43 1.302 0
15-10-2012 05:00 91.1 % 12.746 3.647 46.738 1.998 0
15-10-2012 04:50 91 % 12.739 3.827 28.917 1.78 0
15-10-2012 04:40 91.1 % 12.78 4.173 32.431 1.512 0
15-10-2012 04:30 91.2 % 12.745 4.378 32.362 0.995 0
15-10-2012 04:20 91.3 % 12.7 4.39 67.789 0.777 0
15-10-2012 04:10 91.3 % 12.609 4.339 69.325 0.948 0
15-10-2012 04:00 91.3 % 12.526 3.895 45.331 1.686 0
15-10-2012 03:50 91.1 % 12.463 3.754 30.22 1.106 0
15-10-2012 03:40 90.8 % 12.42 3.152 9.548 2.151 0
15-10-2012 03:30 90.3 % 12.373 3.011 348.243 2.806 0

I dati sono presentati in modo automatico a scopo informativo. In seguito a verifica i dati possono subire modifiche o essere invalidati e non riportati negli archivi definitivi.